Time;durP1;ratioP1;P1;durP2;ratioP2;P2;SDS_P1;SDS_P2;PMS_P1;PMS_P2;Temp;Humidity;BMP_temperature;BMP_pressure;BME280_temperature;BME280_humidity;BME280_pressure;Samples;Min_cycle;Max_cycle;Signal;HPM_P1;HPM_P2
2022/10/24 00:00:07;;;;;;;3.13;2.38;;;;;;;13.54;100.00;100110.25;5048060;28;20081;-76
2022/10/24 00:02:54;;;;;;;2.65;1.70;;;;;;;13.43;100.00;100121.09;5047262;28;20044;-77
2022/10/24 00:05:46;;;;;;;2.45;1.52;;;;;;;13.39;100.00;100111.59;5042381;28;20550;-80
2022/10/24 00:08:35;;;;;;;3.78;1.98;;;;;;;13.40;100.00;100121.19;5044292;28;20045;-78
2022/10/24 00:11:27;;;;;;;5.53;2.05;;;;;;;13.44;100.00;100124.59;5054762;28;20579;-79
2022/10/24 00:14:14;;;;;;;4.55;1.65;;;;;;;13.45;100.00;100126.31;5039740;28;20618;-77
2022/10/24 00:17:01;;;;;;;3.05;1.40;;;;;;;13.46;100.00;100117.53;5058973;28;20056;-78
2022/10/24 00:19:48;;;;;;;2.22;1.60;;;;;;;13.39;100.00;100125.59;5044149;28;20055;-77
2022/10/24 00:22:35;;;;;;;4.25;2.25;;;;;;;13.26;100.00;100124.19;5042496;28;20052;-78
2022/10/24 00:25:22;;;;;;;2.20;1.88;;;;;;;13.15;100.00;100123.63;5063481;28;20060;-77
2022/10/24 00:28:09;;;;;;;3.42;2.30;;;;;;;13.14;100.00;100128.03;5045771;28;20595;-78
2022/10/24 00:30:56;;;;;;;5.70;2.10;;;;;;;13.12;100.00;100134.22;5058471;28;20599;-79
2022/10/24 00:33:44;;;;;;;3.80;1.52;;;;;;;13.06;100.00;100122.09;5032484;28;20033;-77
2022/10/24 00:36:31;;;;;;;4.82;1.70;;;;;;;12.99;100.00;100133.72;5055822;28;20549;-78
2022/10/24 00:39:18;;;;;;;2.53;1.73;;;;;;;12.90;100.00;100129.56;5038416;28;20074;-81
2022/10/24 00:42:05;;;;;;;2.78;1.10;;;;;;;12.88;100.00;100133.97;5035199;28;20064;-76
2022/10/24 00:44:53;;;;;;;6.88;1.75;;;;;;;12.82;100.00;100129.75;5065971;28;20676;-75
2022/10/24 00:47:40;;;;;;;2.40;1.38;;;;;;;12.82;100.00;100127.13;5059600;28;20065;-75
2022/10/24 00:50:29;;;;;;;3.63;1.95;;;;;;;12.78;100.00;100124.66;5043398;28;20583;-76
2022/10/24 00:53:16;;;;;;;3.13;1.73;;;;;;;12.79;100.00;100118.47;5053389;28;20474;-76
2022/10/24 00:56:05;;;;;;;6.05;2.10;;;;;;;12.77;100.00;100115.88;5054532;28;20051;-77
2022/10/24 00:58:54;;;;;;;4.88;2.03;;;;;;;12.73;100.00;100111.63;5054601;28;20443;-76
2022/10/24 01:01:43;;;;;;;2.72;1.73;;;;;;;12.72;100.00;100104.63;5059642;28;20409;-81
2022/10/24 01:04:30;;;;;;;2.65;1.70;;;;;;;12.66;100.00;100108.31;5066308;28;20045;-77
2022/10/24 01:07:54;;;;;;;2.35;1.50;;;;;;;12.64;100.00;100111.88;5055827;28;20060;-80
2022/10/24 01:11:01;;;;;;;3.60;1.45;;;;;;;12.61;100.00;100118.06;5043751;28;20041;-78
2022/10/24 01:14:09;;;;;;;8.70;2.10;;;;;;;12.55;100.00;100124.34;5045555;28;20040;-77
2022/10/24 01:17:25;;;;;;;3.60;1.90;;;;;;;12.54;100.00;100114.75;5058243;28;20052;-77
2022/10/24 01:20:42;;;;;;;5.90;2.05;;;;;;;12.53;100.00;100120.88;5053284;28;20056;-78
2022/10/24 01:23:53;;;;;;;2.13;1.60;;;;;;;12.50;100.00;100128.84;5044143;28;20617;-76
2022/10/24 01:27:09;;;;;;;4.72;2.45;;;;;;;12.47;100.00;100125.44;5055568;28;20114;-77
2022/10/24 01:30:12;;;;;;;2.88;2.05;;;;;;;12.51;100.00;100116.56;5061835;28;20049;-77
2022/10/24 01:33:07;;;;;;;6.07;2.13;;;;;;;12.60;100.00;100102.34;5041387;28;20052;-75
2022/10/24 01:36:06;;;;;;;3.80;2.10;;;;;;;12.66;100.00;100092.53;5048636;28;20055;-77
2022/10/24 01:39:00;;;;;;;4.75;2.22;;;;;;;12.70;100.00;100094.19;5037777;28;20045;-78
2022/10/24 01:41:48;;;;;;;4.57;2.25;;;;;;;12.68;100.00;100103.84;5039848;28;20731;-79
2022/10/24 01:44:42;;;;;;;3.58;2.38;;;;;;;12.70;100.00;100098.59;5043843;28;20039;-78
2022/10/24 01:47:42;;;;;;;2.97;2.47;;;;;;;12.78;100.00;100082.63;5060858;28;20044;-76
2022/10/24 01:50:29;;;;;;;7.05;2.47;;;;;;;12.75;100.00;100088.81;5037041;28;20107;-76
2022/10/24 01:53:16;;;;;;;5.93;2.70;;;;;;;12.69;100.00;100092.44;5046018;28;20060;-78
2022/10/24 01:56:03;;;;;;;2.95;1.90;;;;;;;12.62;100.00;100079.53;5047337;28;20040;-77
2022/10/24 01:58:50;;;;;;;7.47;2.78;;;;;;;12.57;100.00;100088.38;5051295;28;20588;-78
2022/10/24 02:01:39;;;;;;;9.52;3.25;;;;;;;12.51;100.00;100085.06;5039648;28;20068;-76
2022/10/24 02:04:30;;;;;;;4.88;2.53;;;;;;;12.49;100.00;100086.84;5058209;28;20052;-76
2022/10/24 02:07:19;;;;;;;4.38;2.42;;;;;;;12.51;100.00;100083.28;5055753;28;20052;-78
2022/10/24 02:10:30;;;;;;;5.30;2.47;;;;;;;12.47;100.00;100076.41;5061040;28;20055;-77
2022/10/24 02:13:27;;;;;;;3.75;2.33;;;;;;;12.39;100.00;100079.22;5064473;28;20051;-79
2022/10/24 02:16:18;;;;;;;5.57;2.42;;;;;;;12.35;100.00;100090.72;5052876;28;20056;-80
2022/10/24 02:19:05;;;;;;;6.28;2.42;;;;;;;12.37;100.00;100069.66;5032407;28;20114;-78
2022/10/24 02:22:03;;;;;;;7.45;2.75;;;;;;;12.35;100.00;100067.09;5044245;28;20163;-77
2022/10/24 02:25:03;;;;;;;7.38;2.67;;;;;;;12.31;100.00;100049.69;5041402;28;20081;-76
2022/10/24 02:28:07;;;;;;;5.50;2.65;;;;;;;12.28;100.00;100041.91;5045563;28;20569;-78
2022/10/24 02:31:02;;;;;;;2.38;2.17;;;;;;;12.32;100.00;100033.06;5055042;28;20053;-76
2022/10/24 02:33:51;;;;;;;4.03;2.50;;;;;;;12.32;100.00;100047.94;5061821;28;20040;-79
2022/10/24 02:36:41;;;;;;;4.75;2.53;;;;;;;12.29;100.00;100053.25;5057859;28;20071;-78
2022/10/24 02:39:29;;;;;;;3.25;2.95;;;;;;;12.31;100.00;100061.97;5053797;28;20041;-77
2022/10/24 02:42:17;;;;;;;2.05;1.80;;;;;;;12.27;100.00;100052.44;5060471;28;20048;-77
2022/10/24 02:45:06;;;;;;;3.75;2.15;;;;;;;12.26;100.00;100045.47;5065180;28;20037;-79
2022/10/24 02:48:01;;;;;;;2.65;2.42;;;;;;;12.30;100.00;100042.72;5065517;28;20622;-79
2022/10/24 02:50:48;;;;;;;2.30;2.10;;;;;;;12.28;100.00;100039.28;5058392;28;20507;-80
2022/10/24 02:53:37;;;;;;;8.05;2.67;;;;;;;12.31;100.00;100051.47;5071750;28;20292;-77
2022/10/24 02:56:23;;;;;;;11.25;2.78;;;;;;;12.38;100.00;100050.41;5065180;28;20051;-78
2022/10/24 02:59:10;;;;;;;4.35;2.30;;;;;;;12.43;100.00;100042.41;5066812;28;20048;-79
2022/10/24 03:01:58;;;;;;;4.35;2.30;;;;;;;12.35;100.00;100040.84;5061893;28;20078;-78
2022/10/24 03:04:45;;;;;;;4.25;2.22;;;;;;;12.32;100.00;100029.56;5068008;28;20040;-76
2022/10/24 03:07:31;;;;;;;6.70;3.08;;;;;;;12.34;100.00;100035.63;5074559;28;20036;-75
2022/10/24 03:10:19;;;;;;;2.92;2.00;;;;;;;12.36;100.00;100044.34;5077122;28;20055;-75
2022/10/24 03:13:06;;;;;;;4.30;2.45;;;;;;;12.33;100.00;100041.78;5057157;28;20457;-75
2022/10/24 03:15:57;;;;;;;3.20;2.45;;;;;;;12.31;100.00;100039.19;5085779;28;20131;-76
2022/10/24 03:18:44;;;;;;;6.85;3.28;;;;;;;12.32;100.00;100034.81;5068529;28;20040;-77
2022/10/24 03:21:30;;;;;;;3.92;1.85;;;;;;;12.46;100.00;100021.31;5073664;28;20044;-79
2022/10/24 03:24:17;;;;;;;3.60;1.92;;;;;;;12.56;100.00;100028.06;5063267;28;20041;-78
2022/10/24 03:27:04;;;;;;;3.45;2.20;;;;;;;12.50;100.00;100031.72;5068897;28;20489;-80
2022/10/24 03:29:51;;;;;;;5.38;2.05;;;;;;;12.44;100.00;100025.75;5064020;28;20036;-79
2022/10/24 03:32:38;;;;;;;7.80;2.45;;;;;;;12.36;100.00;100024.19;5064881;28;20414;-77
2022/10/24 03:35:25;;;;;;;4.03;2.72;;;;;;;12.34;100.00;100015.50;5079910;28;20535;-79
2022/10/24 03:38:11;;;;;;;3.47;2.38;;;;;;;12.43;100.00;100018.78;5056648;28;20091;-78
2022/10/24 03:40:58;;;;;;;3.45;1.95;;;;;;;12.38;100.00;100019.78;5059255;28;20048;-78
2022/10/24 03:43:45;;;;;;;3.03;2.10;;;;;;;12.43;100.00;100032.78;5073822;28;20047;-78
2022/10/24 03:46:32;;;;;;;5.32;2.13;;;;;;;12.44;100.00;100024.00;5071851;28;20051;-77
2022/10/24 03:49:19;;;;;;;8.68;2.90;;;;;;;12.46;100.00;100032.66;5061616;28;20438;-78
2022/10/24 03:52:05;;;;;;;9.25;2.83;;;;;;;12.50;100.00;100031.72;5057833;28;20051;-81
2022/10/24 03:54:52;;;;;;;3.50;2.15;;;;;;;12.47;100.00;100033.56;5078638;28;20556;-77
2022/10/24 03:57:39;;;;;;;5.35;2.22;;;;;;;12.48;100.00;100041.38;5057317;28;20048;-77
2022/10/24 04:00:27;;;;;;;6.47;3.20;;;;;;;12.45;100.00;100032.72;5071565;28;20082;-79
2022/10/24 04:03:14;;;;;;;3.03;2.50;;;;;;;12.35;100.00;100038.22;5063357;28;20044;-77
2022/10/24 04:06:01;;;;;;;8.23;3.17;;;;;;;12.38;100.00;100026.78;5073666;28;20075;-76
2022/10/24 04:08:48;;;;;;;6.43;3.00;;;;;;;12.44;100.00;100031.00;5079166;28;20194;-76
2022/10/24 04:11:35;;;;;;;6.07;2.63;;;;;;;12.47;100.00;100025.69;5065577;28;20047;-76
2022/10/24 04:14:22;;;;;;;3.28;3.00;;;;;;;12.50;100.00;100034.34;5080932;28;20693;-76
2022/10/24 04:17:08;;;;;;;5.18;3.00;;;;;;;12.52;100.00;100029.88;5064024;28;20044;-77
2022/10/24 04:19:55;;;;;;;3.97;2.35;;;;;;;12.49;100.00;100027.38;5065678;28;20048;-79
2022/10/24 04:22:42;;;;;;;4.18;2.42;;;;;;;12.43;100.00;100038.00;5061817;28;20810;-77
2022/10/24 04:25:29;;;;;;;7.88;3.15;;;;;;;12.41;100.00;100035.44;5060458;28;20044;-79
2022/10/24 04:28:16;;;;;;;7.82;3.13;;;;;;;12.41;100.00;100030.19;5076198;28;20048;-78
2022/10/24 04:31:03;;;;;;;9.57;3.85;;;;;;;12.48;100.00;100036.13;5067247;28;20666;-78
2022/10/24 04:33:49;;;;;;;6.40;3.17;;;;;;;12.43;100.00;100031.91;5068627;28;20124;-77
2022/10/24 04:36:36;;;;;;;7.63;3.45;;;;;;;12.41;100.00;100022.31;5068018;28;20040;-77
2022/10/24 04:39:23;;;;;;;10.25;3.60;;;;;;;12.45;100.00;100028.34;5085718;28;20048;-77
2022/10/24 04:42:10;;;;;;;7.32;3.25;;;;;;;12.45;100.00;100028.34;5070906;28;20794;-77
2022/10/24 04:44:57;;;;;;;11.02;3.88;;;;;;;12.43;100.00;100019.63;5058692;28;20052;-76
2022/10/24 04:47:44;;;;;;;5.15;3.22;;;;;;;12.47;100.00;100031.78;5068860;28;20036;-77
2022/10/24 04:50:30;;;;;;;11.25;3.80;;;;;;;12.47;100.00;100023.06;5058100;28;20041;-76
2022/10/24 04:53:23;;;;;;;13.20;3.40;;;;;;;12.47;100.00;100025.69;5061311;28;20048;-79
2022/10/24 04:56:10;;;;;;;4.18;3.78;;;;;;;12.51;100.00;100024.69;5072441;28;20044;-79
2022/10/24 04:58:57;;;;;;;9.15;4.78;;;;;;;12.48;100.00;100030.88;5057248;28;20690;-78
2022/10/24 05:01:44;;;;;;;12.18;4.22;;;;;;;12.47;100.00;100020.44;5059057;28;20040;-77
2022/10/24 05:04:31;;;;;;;5.82;3.17;;;;;;;12.51;100.00;100035.19;5063056;28;20039;-77
2022/10/24 05:07:19;;;;;;;7.40;3.30;;;;;;;12.49;100.00;100037.84;5064873;28;20040;-79
2022/10/24 05:10:06;;;;;;;6.40;2.83;;;;;;;12.49;100.00;100031.72;5053036;28;20049;-80
2022/10/24 05:12:53;;;;;;;8.23;3.20;;;;;;;12.53;100.00;100023.75;5062319;28;20056;-80
2022/10/24 05:15:40;;;;;;;8.20;3.45;;;;;;;12.57;100.00;100021.91;5069836;28;20047;-78
2022/10/24 05:18:27;;;;;;;7.03;2.90;;;;;;;12.58;100.00;100021.84;5061906;28;20047;-78
2022/10/24 05:21:14;;;;;;;8.45;3.30;;;;;;;12.53;100.00;100017.66;5076236;28;20040;-77
2022/10/24 05:24:01;;;;;;;5.00;2.58;;;;;;;12.55;100.00;100011.44;5067993;28;20075;-77
2022/10/24 05:26:48;;;;;;;6.72;3.20;;;;;;;12.53;100.00;100005.38;5066602;28;20047;-76
2022/10/24 05:29:35;;;;;;;6.65;3.38;;;;;;;12.57;100.00;99998.28;5066695;28;20105;-79
2022/10/24 05:32:23;;;;;;;5.68;3.08;;;;;;;12.63;100.00;99998.06;5062076;28;20048;-81
2022/10/24 05:35:10;;;;;;;5.07;2.88;;;;;;;12.70;100.00;100001.41;5078235;28;20045;-79
2022/10/24 05:37:57;;;;;;;8.18;3.97;;;;;;;12.66;100.00;100003.25;5057736;28;20045;-75
2022/10/24 05:40:46;;;;;;;5.63;3.13;;;;;;;12.60;100.00;100008.69;5071579;28;20052;-77
2022/10/24 05:43:33;;;;;;;4.13;2.90;;;;;;;12.61;100.00;100006.94;5062443;28;20060;-76
2022/10/24 05:46:20;;;;;;;13.38;3.67;;;;;;;12.56;100.00;100002.66;5061097;28;20124;-76
2022/10/24 05:49:07;;;;;;;4.70;3.22;;;;;;;12.56;100.00;100005.28;5059541;28;20040;-77
2022/10/24 05:51:54;;;;;;;8.18;3.85;;;;;;;12.54;100.00;100009.72;5060323;28;20037;-79
2022/10/24 05:54:41;;;;;;;8.07;3.25;;;;;;;12.63;100.00;100010.34;5058458;28;20166;-79
2022/10/24 05:57:28;;;;;;;6.50;2.95;;;;;;;12.55;100.00;100007.94;5076716;28;20033;-78
2022/10/24 06:00:17;;;;;;;9.70;4.15;;;;;;;12.52;100.00;100005.41;5068675;28;20040;-78
2022/10/24 06:03:06;;;;;;;3.92;3.15;;;;;;;12.48;100.00;100004.63;5062516;28;20053;-81
2022/10/24 06:05:53;;;;;;;6.88;3.50;;;;;;;12.55;100.00;100015.81;5079217;28;20040;-77
2022/10/24 06:08:40;;;;;;;10.73;3.63;;;;;;;12.58;100.00;100021.84;5058580;28;20044;-78
2022/10/24 06:11:27;;;;;;;4.85;3.15;;;;;;;12.58;100.00;100015.75;5057570;28;20036;-79
2022/10/24 06:14:15;;;;;;;9.45;3.60;;;;;;;12.60;100.00;100024.44;5055506;28;20056;-80
2022/10/24 06:17:04;;;;;;;9.23;3.15;;;;;;;12.65;100.00;100019.06;5075316;28;20139;-78
2022/10/24 06:19:51;;;;;;;9.75;3.40;;;;;;;12.76;100.00;100011.72;5057612;28;20040;-77
2022/10/24 06:22:38;;;;;;;7.10;3.58;;;;;;;12.73;100.00;100004.78;5069605;28;20044;-80
2022/10/24 06:25:25;;;;;;;9.32;2.88;;;;;;;12.69;100.00;100010.19;5069040;28;20070;-76
2022/10/24 06:28:13;;;;;;;8.70;3.58;;;;;;;12.67;100.00;100007.63;5060631;28;20051;-77
2022/10/24 06:31:02;;;;;;;5.70;3.42;;;;;;;12.85;100.00;100008.88;5071737;28;20052;-80
2022/10/24 06:33:49;;;;;;;6.03;2.75;;;;;;;12.97;100.00;100012.91;5068481;28;20072;-78
2022/10/24 06:36:36;;;;;;;9.93;2.50;;;;;;;13.01;100.00;100009.28;5078944;28;20398;-80
2022/10/24 06:39:22;;;;;;;7.43;2.38;;;;;;;13.04;100.00;100016.22;5068260;28;20051;-80
2022/10/24 06:42:09;;;;;;;8.15;3.03;;;;;;;13.15;100.00;100013.25;5067077;28;20517;-77
2022/10/24 06:44:56;;;;;;;5.32;3.05;;;;;;;13.16;100.00;100026.34;5062651;28;20654;-75
2022/10/24 06:47:43;;;;;;;7.72;2.97;;;;;;;13.24;100.00;100031.38;5060022;28;20700;-79
2022/10/24 06:50:30;;;;;;;6.03;3.53;;;;;;;13.34;100.00;100037.22;5065696;28;20067;-78
2022/10/24 06:53:17;;;;;;;4.30;2.70;;;;;;;13.33;100.00;100038.97;5063347;28;20046;-81
2022/10/24 06:56:06;;;;;;;5.53;2.67;;;;;;;13.37;100.00;100024.00;5062168;28;20055;-78
2022/10/24 06:58:53;;;;;;;8.82;2.65;;;;;;;13.41;100.00;100041.41;5078586;28;20131;-79
2022/10/24 07:01:39;;;;;;;8.05;3.33;;;;;;;13.51;100.00;100042.00;5062866;28;20044;-80
2022/10/24 07:04:26;;;;;;;6.45;3.30;;;;;;;13.57;100.00;100045.28;5058648;28;20045;-78
2022/10/24 07:07:19;;;;;;;6.80;2.80;;;;;;;13.61;100.00;100045.19;5073133;28;20052;-77
2022/10/24 07:10:07;;;;;;;4.60;2.45;;;;;;;13.64;100.00;100050.38;5074611;28;20082;-78
2022/10/24 07:12:53;;;;;;;8.35;2.80;;;;;;;13.68;100.00;100049.34;5057970;28;20632;-79
2022/10/24 07:15:40;;;;;;;7.93;3.28;;;;;;;13.77;100.00;100043.81;5060696;28;20032;-80
2022/10/24 07:18:27;;;;;;;5.63;2.83;;;;;;;13.86;100.00;100040.03;5081543;28;20145;-78
2022/10/24 07:21:20;;;;;;;6.57;2.28;;;;;;;13.97;100.00;100042.28;5065973;28;20044;-77
2022/10/24 07:24:07;;;;;;;5.10;3.22;;;;;;;14.07;100.00;100060.34;5059492;28;20060;-78
2022/10/24 07:26:54;;;;;;;5.25;1.98;;;;;;;14.16;100.00;100060.97;5059022;28;20045;-80
2022/10/24 07:29:41;;;;;;;8.90;3.05;;;;;;;14.26;100.00;100058.88;5085251;28;20029;-78
2022/10/24 07:32:28;;;;;;;6.88;2.88;;;;;;;14.38;100.00;100061.13;5068164;28;20051;-78
2022/10/24 07:35:14;;;;;;;8.20;2.72;;;;;;;14.48;100.00;100057.22;5060111;28;20884;-78
2022/10/24 07:38:01;;;;;;;7.80;2.40;;;;;;;14.61;100.00;100057.66;5052802;28;20052;-77
2022/10/24 07:40:48;;;;;;;10.88;3.03;;;;;;;14.69;100.00;100070.59;5053542;28;20851;-77
2022/10/24 07:43:35;;;;;;;6.30;2.67;;;;;;;14.75;100.00;100059.84;5054488;28;20155;-77
2022/10/24 07:46:22;;;;;;;5.93;2.22;;;;;;;14.83;100.00;100064.84;5062432;28;20057;-77
2022/10/24 07:49:10;;;;;;;4.55;2.40;;;;;;;14.96;100.00;100065.25;5054463;28;20041;-77
2022/10/24 07:51:56;;;;;;;4.20;2.10;;;;;;;15.09;100.00;100066.53;5061261;28;20443;-77
2022/10/24 07:54:43;;;;;;;5.90;2.25;;;;;;;15.14;100.00;100064.56;5083242;28;20051;-76
2022/10/24 07:57:30;;;;;;;8.95;1.75;;;;;;;15.22;100.00;100065.13;5062471;28;20040;-76
2022/10/24 08:00:17;;;;;;;6.65;2.50;;;;;;;15.32;100.00;100073.56;5064141;28;20155;-76
2022/10/24 08:03:04;;;;;;;7.53;2.42;;;;;;;15.41;100.00;100063.56;5081029;28;20045;-81
2022/10/24 08:05:55;;;;;;;6.47;2.10;;;;;;;15.53;100.00;100061.31;5069382;28;20106;-77
2022/10/24 08:08:42;;;;;;;5.40;1.80;;;;;;;15.65;100.00;100051.22;5074431;28;20128;-75
2022/10/24 08:11:31;;;;;;;9.52;2.72;;;;;;;15.75;100.00;100064.88;5074002;28;20044;-76
2022/10/24 08:14:18;;;;;;;7.07;2.80;;;;;;;15.82;100.00;100063.78;5063515;28;20325;-76
2022/10/24 08:17:05;;;;;;;6.97;2.15;;;;;;;15.94;100.00;100075.59;5073526;28;20040;-77
2022/10/24 08:19:52;;;;;;;2.15;1.40;;;;;;;16.06;100.00;100058.41;5063695;28;20053;-77
2022/10/24 08:22:40;;;;;;;8.32;2.95;;;;;;;16.16;100.00;100054.47;5064358;28;20182;-76
2022/10/24 08:25:27;;;;;;;11.90;2.00;;;;;;;16.21;99.34;100048.06;5059507;28;20089;-74
2022/10/24 08:28:14;;;;;;;2.97;1.75;;;;;;;16.24;97.30;100049.72;5075276;28;20048;-78
2022/10/24 08:31:09;;;;;;;6.20;1.95;;;;;;;16.31;94.73;100056.47;5070018;28;20049;-75
2022/10/24 08:33:56;;;;;;;6.18;2.33;;;;;;;16.34;94.65;100058.97;5064613;28;20128;-76
2022/10/24 08:36:43;;;;;;;5.97;2.65;;;;;;;16.39;94.78;100058.78;5067848;28;20053;-75
2022/10/24 08:39:30;;;;;;;10.13;2.30;;;;;;;16.54;89.25;100041.41;5065413;28;20044;-76
2022/10/24 08:42:18;;;;;;;6.18;2.13;;;;;;;16.68;89.20;100052.22;5076485;28;20040;-76
2022/10/24 08:45:13;;;;;;;4.53;1.60;;;;;;;16.77;88.89;100052.75;5076955;28;20037;-77
2022/10/24 08:48:08;;;;;;;5.10;2.92;;;;;;;16.83;88.85;100053.34;5085462;28;20044;-75
2022/10/24 08:51:34;;;;;;;2.05;1.85;;;;;;;16.94;87.00;100059.97;5051880;28;20048;-75
2022/10/24 08:54:29;;;;;;;6.43;2.63;;;;;;;16.98;86.39;100064.19;5041697;28;20055;-77
2022/10/24 08:57:29;;;;;;;6.40;2.38;;;;;;;17.06;84.74;100062.03;5063373;28;20084;-79
2022/10/24 09:00:24;;;;;;;9.52;2.83;;;;;;;17.11;84.30;100054.75;5040986;28;20036;-77
2022/10/24 09:03:43;;;;;;;6.07;1.90;;;;;;;17.16;82.77;100052.75;5037277;28;20523;-77
2022/10/24 09:06:32;;;;;;;6.68;2.00;;;;;;;17.13;82.86;100058.19;5059595;28;20467;-78
2022/10/24 09:09:26;;;;;;;4.78;1.95;;;;;;;17.10;83.65;100050.38;5037251;28;20037;-78
2022/10/24 09:12:16;;;;;;;8.55;1.40;;;;;;;17.04;83.48;100040.13;5051760;28;20132;-80
2022/10/24 09:15:17;;;;;;;3.88;1.58;;;;;;;17.11;81.32;100041.53;5034708;28;20791;-79
2022/10/24 09:18:04;;;;;;;6.55;1.83;;;;;;;17.11;81.68;100048.63;5042352;28;20055;-78
2022/10/24 09:20:52;;;;;;;2.75;1.50;;;;;;;17.08;81.37;100051.38;5060149;28;20040;-78
2022/10/24 09:23:40;;;;;;;4.88;1.60;;;;;;;17.03;81.95;100052.47;5054686;28;20052;-77
2022/10/24 09:26:30;;;;;;;3.67;1.58;;;;;;;17.00;81.51;100043.81;5045709;28;20040;-76
2022/10/24 09:29:17;;;;;;;4.93;2.08;;;;;;;16.96;81.68;100050.16;5045504;28;20052;-78
2022/10/24 09:32:04;;;;;;;4.25;2.00;;;;;;;16.89;82.54;100046.91;5047757;28;20051;-80
2022/10/24 09:34:51;;;;;;;6.03;2.17;;;;;;;16.93;81.45;100058.25;5078527;28;20056;-81
2022/10/24 09:37:49;;;;;;;5.05;1.83;;;;;;;16.93;82.29;100051.16;5078424;28;20060;-79
2022/10/24 09:40:37;;;;;;;6.00;2.08;;;;;;;17.01;81.17;100066.69;5068309;28;20068;-77
2022/10/24 09:43:45;;;;;;;4.75;2.08;;;;;;;17.02;81.18;100063.97;5056697;28;20056;-78
2022/10/24 09:46:44;;;;;;;7.63;1.65;;;;;;;17.00;82.02;100062.31;5041799;28;20045;-78
2022/10/24 09:49:40;;;;;;;5.13;2.08;;;;;;;17.07;81.76;100068.22;5043341;28;20712;-77
2022/10/24 09:52:30;;;;;;;13.90;2.80;;;;;;;17.19;80.55;100065.88;5056309;28;20753;-77
2022/10/24 09:55:20;;;;;;;4.03;1.95;;;;;;;17.28;79.77;100071.66;5063135;28;20713;-79
2022/10/24 09:58:20;;;;;;;6.85;2.30;;;;;;;17.25;79.35;100069.13;5037298;28;20055;-77
2022/10/24 10:01:16;;;;;;;6.90;1.58;;;;;;;17.22;79.38;100072.78;5053358;28;20048;-79
2022/10/24 10:04:05;;;;;;;8.98;1.88;;;;;;;17.23;79.58;100077.13;5050948;28;20519;-77
2022/10/24 10:06:52;;;;;;;4.45;1.85;;;;;;;17.28;78.69;100072.50;5043951;28;20040;-77
2022/10/24 10:09:53;;;;;;;2.97;1.65;;;;;;;17.38;78.67;100082.66;5038626;28;20047;-76
2022/10/24 10:12:41;;;;;;;12.63;2.17;;;;;;;17.65;75.21;100070.78;5033149;28;20680;-80
2022/10/24 10:15:44;;;;;;;4.63;1.58;;;;;;;17.89;74.86;100073.16;5051266;28;20043;-77
2022/10/24 10:18:37;;;;;;;3.53;1.20;;;;;;;18.16;74.08;100078.94;5057897;28;20056;-79
2022/10/24 10:21:26;;;;;;;4.60;1.40;;;;;;;18.39;71.67;100073.41;5051728;28;21031;-78
2022/10/24 10:24:37;;;;;;;5.50;2.00;;;;;;;18.53;70.38;100081.50;5046249;28;20141;-75
2022/10/24 10:27:36;;;;;;;7.97;1.58;;;;;;;18.57;70.46;100082.22;5043466;28;20041;-79
2022/10/24 10:30:22;;;;;;;4.13;1.42;;;;;;;18.58;69.38;100083.94;5053940;28;20047;-79
2022/10/24 10:33:24;;;;;;;3.00;1.35;;;;;;;18.49;69.74;100077.31;5041350;28;20057;-77
2022/10/24 10:36:24;;;;;;;4.72;1.45;;;;;;;18.35;70.73;100084.19;5040365;28;20490;-80
2022/10/24 10:39:38;;;;;;;5.13;1.77;;;;;;;18.29;70.93;100089.78;5040609;28;20049;-80
2022/10/24 10:42:49;;;;;;;9.02;1.90;;;;;;;18.19;71.57;100089.38;5054230;28;20044;-79
2022/10/24 10:45:53;;;;;;;3.30;1.20;;;;;;;18.28;71.78;100093.34;5056980;28;20035;-79
2022/10/24 10:48:51;;;;;;;6.63;1.92;;;;;;;18.31;70.41;100095.84;5041821;28;20066;-77
2022/10/24 10:51:52;;;;;;;4.63;1.55;;;;;;;18.34;71.01;100094.81;5033524;28;20041;-79
2022/10/24 10:55:28;;;;;;;6.75;1.38;;;;;;;18.37;70.06;100096.47;5045026;28;20059;-77
2022/10/24 10:59:15;;;;;;;2.05;1.33;;;;;;;18.26;70.57;100103.16;5053270;28;20123;-80
2022/10/24 11:02:32;;;;;;;4.13;1.58;;;;;;;18.12;71.32;100109.16;4994851;28;20743;-78
2022/10/24 11:05:31;;;;;;;6.35;1.73;;;;;;;18.30;70.23;100098.56;5044406;28;20048;-79
2022/10/24 11:08:38;;;;;;;6.60;2.08;;;;;;;18.48;67.16;100121.47;5056211;28;20057;-77
2022/10/24 11:11:31;;;;;;;7.88;1.52;;;;;;;18.54;66.95;100116.81;5064370;28;20062;-76
2022/10/24 11:14:33;;;;;;;3.22;0.88;;;;;;;18.54;67.24;100100.91;5065074;28;20052;-79
2022/10/24 11:17:27;;;;;;;2.70;1.15;;;;;;;18.56;66.14;100102.53;5038190;28;20115;-79
2022/10/24 11:20:25;;;;;;;5.28;1.38;;;;;;;18.58;65.84;100113.09;5046173;28;20052;-79
2022/10/24 11:23:49;;;;;;;4.45;1.17;;;;;;;18.60;63.75;100097.94;5037819;28;20056;-77
2022/10/24 11:26:46;;;;;;;;;;;;;;;18.60;63.27;100108.56;5064503;28;20040;-79
2022/10/24 11:30:06;;;;;;;3.65;0.90;;;;;;;18.60;63.83;100113.84;5042185;28;19924;-77
2022/10/24 11:32:58;;;;;;;3.63;0.63;;;;;;;18.65;63.26;100110.03;5041316;28;20233;-77
2022/10/24 11:36:34;;;;;;;3.63;1.17;;;;;;;18.60;62.59;100112.06;5057900;28;20040;-79
2022/10/24 11:39:52;;;;;;;3.80;1.25;;;;;;;18.55;61.85;100114.09;5034514;28;20045;-79
2022/10/24 11:43:07;;;;;;;1.75;0.68;;;;;;;18.47;62.18;100103.03;5033006;28;20075;-79
2022/10/24 11:46:04;;;;;;;;;;;;;;;18.41;62.03;100114.78;5059973;28;20033;-76
2022/10/24 11:49:16;;;;;;;3.28;0.85;;;;;;;18.35;62.34;100108.03;5054426;28;20439;-77
2022/10/24 11:52:26;;;;;;;3.88;0.82;;;;;;;18.32;62.51;100115.25;5049422;28;20053;-78
2022/10/24 11:55:20;;;;;;;4.75;0.68;;;;;;;18.34;62.47;100116.03;5042432;28;20045;-78
2022/10/24 11:58:14;;;;;;;2.75;0.65;;;;;;;18.39;62.66;100110.50;5038918;28;20041;-75
2022/10/24 12:01:29;;;;;;;1.45;0.90;;;;;;;18.41;61.87;100109.50;5043115;28;20048;-76
2022/10/24 12:04:56;;;;;;;4.38;1.40;;;;;;;18.31;62.15;100121.50;5044224;28;20045;-79
2022/10/24 12:08:11;;;;;;;2.40;0.88;;;;;;;18.27;62.10;100086.34;5049145;28;20052;-77
2022/10/24 12:11:14;;;;;;;3.10;0.82;;;;;;;18.28;62.06;100119.84;5051057;28;20047;-78
2022/10/24 12:14:19;;;;;;;4.20;0.77;;;;;;;18.32;61.81;100132.00;5042865;28;20076;-76
2022/10/24 12:17:28;;;;;;;2.13;0.50;;;;;;;18.23;62.18;100113.06;5051043;28;20041;-79
2022/10/24 12:20:21;;;;;;;2.40;0.50;;;;;;;18.26;62.01;100119.06;5049149;28;20056;-80
2022/10/24 12:23:22;;;;;;;0.80;0.50;;;;;;;18.52;61.23;100112.47;5039306;28;20439;-77
2022/10/24 12:26:20;;;;;;;3.55;0.55;;;;;;;18.73;60.17;100119.38;5052572;28;20684;-78
2022/10/24 12:29:20;;;;;;;3.45;0.68;;;;;;;18.71;60.11;100108.88;5041299;28;20059;-77
2022/10/24 12:32:46;;;;;;;2.75;0.60;;;;;;;18.69;60.65;100113.38;5054696;28;20048;-80
2022/10/24 12:35:43;;;;;;;5.22;0.65;;;;;;;18.83;60.27;100117.97;5020047;28;20597;-78
2022/10/24 12:38:29;;;;;;;7.35;1.17;;;;;;;19.00;58.58;100106.53;5054960;28;20075;-78
2022/10/24 12:41:31;;;;;;;4.85;0.60;;;;;;;18.83;58.95;100126.78;5070263;28;20041;-77
2022/10/24 12:44:33;;;;;;;4.13;0.52;;;;;;;18.70;59.28;100133.66;5070917;28;20079;-77
2022/10/24 12:47:33;;;;;;;2.70;0.80;;;;;;;18.65;59.96;100130.38;5066425;28;20055;-76
2022/10/24 12:50:23;;;;;;;2.40;0.68;;;;;;;18.63;59.21;100134.91;5044455;28;20325;-78
2022/10/24 12:53:38;;;;;;;0.95;0.43;;;;;;;18.56;59.18;100160.88;5076220;28;20040;-77
2022/10/24 12:56:24;;;;;;;1.33;0.57;;;;;;;18.53;58.83;100150.44;5062383;28;20048;-76
2022/10/24 12:59:26;;;;;;;3.65;0.43;;;;;;;18.49;58.92;100140.91;5055710;28;20049;-75
2022/10/24 13:02:12;;;;;;;8.05;0.88;;;;;;;18.52;59.37;100162.84;5050166;28;20071;-77
2022/10/24 13:05:34;;;;;;;3.08;0.70;;;;;;;18.47;59.64;100146.31;5068942;28;20040;-75
2022/10/24 13:09:08;;;;;;;4.47;0.90;;;;;;;18.34;61.04;100140.75;5074859;28;20056;-77
2022/10/24 13:12:41;;;;;;;1.50;0.40;;;;;;;18.30;61.37;100139.19;5055629;28;20056;-76
2022/10/24 13:15:53;;;;;;;5.32;0.60;;;;;;;18.20;61.53;100145.88;5048070;28;20044;-76
2022/10/24 13:18:45;;;;;;;3.85;0.60;;;;;;;18.14;62.09;100160.25;5050596;28;20044;-77